TRA893N EHAM-LGSR
Flight info
| Callsign | TRA893N |
|---|---|
| Flight time | 3h 8m |
| Altitude | 37000 |
| Route | EDUPO Z739 MISGO DCT DOJOH DCT DODEN DCT NEGIX DCT DINKU M867 XERUM DCT BAVAX DCT RADIZ DCT PINDO DCT PIKOS UL607 NETIS M601 PEXAN |
| Aircraft | B738/M-SDE2E3FGHIRWXYZ/LB1 |
Departure
| Time | 2026-05-07 09:57 |
|---|---|
| Airport | Amsterdam Airport Schiphol (EHAM) |
Arrival
| Time | 2026-05-07 13:06 |
|---|---|
| Airport | Santorini International Airport (LGSR) |
| Time | Latitude | Longitude | Altitude | Speed | Heading |
|---|---|---|---|---|---|
| 2026-05-07 09:30 | 52.30911 | 4.76795 | -2 ft | 0 kts | 183° |
| 2026-05-07 09:44 | 52.30935 | 4.76797 | -2 ft | 4 kts | 185° |
| 2026-05-07 09:44 | 52.30962 | 4.76801 | -2 ft | 4 kts | 186° |
| 2026-05-07 09:44 | 52.30989 | 4.76805 | -2 ft | 4 kts | 180° |
| 2026-05-07 09:44 | 52.31013 | 4.76800 | -2 ft | 4 kts | 138° |
| 2026-05-07 09:45 | 52.31025 | 4.76807 | -2 ft | 3 kts | 40° |
| 2026-05-07 09:47 | 52.31032 | 4.76814 | -2 ft | 4 kts | 33° |
| 2026-05-07 09:47 | 52.31072 | 4.76856 | -2 ft | 8 kts | 33° |
| 2026-05-07 09:48 | 52.31126 | 4.76914 | -2 ft | 10 kts | 33° |
| 2026-05-07 09:48 | 52.31189 | 4.76982 | -2 ft | 12 kts | 33° |
| 2026-05-07 09:48 | 52.31265 | 4.77063 | -2 ft | 14 kts | 33° |
| 2026-05-07 09:48 | 52.31344 | 4.77149 | -2 ft | 14 kts | 34° |
| 2026-05-07 09:49 | 52.31433 | 4.77193 | -2 ft | 13 kts | 2° |
| 2026-05-07 09:49 | 52.31524 | 4.77200 | -2 ft | 13 kts | 1° |
| 2026-05-07 09:49 | 52.31569 | 4.77101 | -2 ft | 12 kts | 265° |
| 2026-05-07 09:49 | 52.31564 | 4.76961 | -2 ft | 13 kts | 267° |
| 2026-05-07 09:50 | 52.31558 | 4.76805 | -2 ft | 15 kts | 266° |
| 2026-05-07 09:50 | 52.31550 | 4.76598 | -2 ft | 19 kts | 264° |
| 2026-05-07 09:50 | 52.31467 | 4.76438 | -2 ft | 19 kts | 240° |
| 2026-05-07 09:50 | 52.31455 | 4.76229 | -2 ft | 18 kts | 266° |
| 2026-05-07 09:51 | 52.31447 | 4.76025 | -2 ft | 18 kts | 267° |
| 2026-05-07 09:51 | 52.31440 | 4.75829 | -2 ft | 17 kts | 266° |
| 2026-05-07 09:51 | 52.31433 | 4.75640 | -2 ft | 17 kts | 267° |
| 2026-05-07 09:51 | 52.31425 | 4.75423 | -2 ft | 21 kts | 266° |
| 2026-05-07 09:52 | 52.31417 | 4.75185 | -2 ft | 21 kts | 267° |
| 2026-05-07 09:52 | 52.31409 | 4.74949 | -2 ft | 20 kts | 268° |
| 2026-05-07 09:52 | 52.31404 | 4.74721 | -2 ft | 20 kts | 266° |
| 2026-05-07 09:52 | 52.31396 | 4.74489 | -2 ft | 21 kts | 267° |
| 2026-05-07 09:53 | 52.31389 | 4.74278 | -2 ft | 12 kts | 267° |
| 2026-05-07 09:53 | 52.31361 | 4.74144 | -2 ft | 14 kts | 211° |
| 2026-05-07 09:53 | 52.31261 | 4.74126 | -2 ft | 16 kts | 182° |
| 2026-05-07 09:53 | 52.31132 | 4.74115 | -2 ft | 21 kts | 184° |
| 2026-05-07 09:54 | 52.30973 | 4.74100 | -2 ft | 25 kts | 183° |
| 2026-05-07 09:54 | 52.30789 | 4.74084 | -2 ft | 26 kts | 183° |
| 2026-05-07 09:54 | 52.30617 | 4.74071 | -2 ft | 23 kts | 182° |
| 2026-05-07 09:54 | 52.30471 | 4.74058 | -2 ft | 15 kts | 183° |
| 2026-05-07 09:55 | 52.30410 | 4.74001 | -2 ft | 8 kts | 245° |
| 2026-05-07 09:55 | 52.30407 | 4.73929 | -2 ft | 0 kts | 273° |
| 2026-05-07 09:55 | 52.30407 | 4.73928 | -2 ft | 1 kts | 273° |
| 2026-05-07 09:55 | 52.30408 | 4.73899 | -3 ft | 5 kts | 272° |
| 2026-05-07 09:56 | 52.30410 | 4.73811 | -4 ft | 9 kts | 271° |
| 2026-05-07 09:56 | 52.30440 | 4.73758 | -4 ft | 5 kts | 0° |
| 2026-05-07 09:56 | 52.30473 | 4.73760 | -4 ft | 5 kts | 2° |
| 2026-05-07 09:56 | 52.30526 | 4.73765 | -4 ft | 21 kts | 4° |
| 2026-05-07 09:57 | 52.30898 | 4.73802 | -2 ft | 85 kts | 3° |
| 2026-05-07 09:57 | 52.31678 | 4.73873 | -3 ft | 140 kts | 3° |
| 2026-05-07 09:57 | 52.32801 | 4.73984 | 98 ft | 174 kts | 4° |
| 2026-05-07 09:57 | 52.33990 | 4.74092 | 793 ft | 170 kts | 4° |
| 2026-05-07 09:58 | 52.35142 | 4.74659 | 1335 ft | 178 kts | 27° |
| 2026-05-07 09:58 | 52.36249 | 4.75608 | 1986 ft | 180 kts | 28° |
| 2026-05-07 09:58 | 52.37408 | 4.76629 | 2348 ft | 201 kts | 28° |
| 2026-05-07 09:58 | 52.38592 | 4.77992 | 2621 ft | 216 kts | 47° |
| 2026-05-07 09:59 | 52.39638 | 4.79883 | 2919 ft | 231 kts | 48° |
| 2026-05-07 09:59 | 52.40762 | 4.81919 | 3191 ft | 252 kts | 47° |
| 2026-05-07 09:59 | 52.41931 | 4.84171 | 3533 ft | 270 kts | 57° |
| 2026-05-07 09:59 | 52.42547 | 4.87066 | 4226 ft | 274 kts | 86° |
| 2026-05-07 10:00 | 52.42510 | 4.90171 | 5123 ft | 268 kts | 92° |
| 2026-05-07 10:00 | 52.42412 | 4.93202 | 5956 ft | 267 kts | 92° |
| 2026-05-07 10:00 | 52.42283 | 4.96260 | 6520 ft | 275 kts | 97° |
| 2026-05-07 10:00 | 52.41660 | 4.99202 | 7276 ft | 275 kts | 123° |
| 2026-05-07 10:01 | 52.40331 | 5.01450 | 7970 ft | 278 kts | 138° |
| 2026-05-07 10:01 | 52.39015 | 5.03778 | 8600 ft | 281 kts | 128° |
| 2026-05-07 10:01 | 52.37793 | 5.06306 | 9244 ft | 284 kts | 128° |
| 2026-05-07 10:01 | 52.36544 | 5.08850 | 9876 ft | 288 kts | 128° |
| 2026-05-07 10:02 | 52.35269 | 5.11410 | 10414 ft | 296 kts | 129° |
| 2026-05-07 10:02 | 52.33908 | 5.14108 | 10561 ft | 317 kts | 129° |
| 2026-05-07 10:02 | 52.32449 | 5.16973 | 10737 ft | 337 kts | 129° |
| 2026-05-07 10:02 | 52.30918 | 5.19954 | 11124 ft | 348 kts | 130° |
| 2026-05-07 10:03 | 52.29341 | 5.23011 | 11696 ft | 352 kts | 130° |
| 2026-05-07 10:03 | 52.27754 | 5.26076 | 12333 ft | 355 kts | 130° |
| 2026-05-07 10:03 | 52.26151 | 5.29160 | 12974 ft | 358 kts | 130° |
| 2026-05-07 10:03 | 52.24532 | 5.32269 | 13603 ft | 361 kts | 130° |
| 2026-05-07 10:04 | 52.22916 | 5.35367 | 14228 ft | 364 kts | 130° |
| 2026-05-07 10:04 | 52.21269 | 5.38520 | 14841 ft | 368 kts | 130° |
| 2026-05-07 10:04 | 52.19601 | 5.41708 | 15477 ft | 371 kts | 130° |
| 2026-05-07 10:04 | 52.17918 | 5.44920 | 16112 ft | 374 kts | 130° |
| 2026-05-07 10:05 | 52.16222 | 5.48156 | 16714 ft | 377 kts | 131° |
| 2026-05-07 10:05 | 52.14510 | 5.51417 | 17290 ft | 381 kts | 131° |
| 2026-05-07 10:05 | 52.12779 | 5.54708 | 17872 ft | 384 kts | 131° |
| 2026-05-07 10:05 | 52.11029 | 5.58031 | 18430 ft | 387 kts | 131° |
| 2026-05-07 10:06 | 52.09266 | 5.61376 | 18971 ft | 390 kts | 131° |
| 2026-05-07 10:06 | 52.07492 | 5.64738 | 19526 ft | 393 kts | 131° |
| 2026-05-07 10:06 | 52.05698 | 5.68129 | 20048 ft | 396 kts | 131° |
| 2026-05-07 10:06 | 52.03919 | 5.71491 | 20544 ft | 399 kts | 131° |
| 2026-05-07 10:07 | 52.02108 | 5.74910 | 21049 ft | 402 kts | 131° |
| 2026-05-07 10:07 | 52.00272 | 5.78369 | 21545 ft | 405 kts | 131° |
| 2026-05-07 10:07 | 51.98428 | 5.81839 | 22011 ft | 408 kts | 131° |
| 2026-05-07 10:07 | 51.96559 | 5.85351 | 22467 ft | 411 kts | 131° |
| 2026-05-07 10:08 | 51.94689 | 5.88862 | 22926 ft | 413 kts | 131° |
| 2026-05-07 10:08 | 51.92802 | 5.92399 | 23339 ft | 416 kts | 131° |
| 2026-05-07 10:08 | 51.90902 | 5.95955 | 23746 ft | 419 kts | 131° |
| 2026-05-07 10:08 | 51.88989 | 5.99533 | 24165 ft | 421 kts | 131° |
| 2026-05-07 10:09 | 51.87061 | 6.03132 | 24584 ft | 424 kts | 131° |
| 2026-05-07 10:09 | 51.85123 | 6.06742 | 24996 ft | 426 kts | 131° |
| 2026-05-07 10:09 | 51.83166 | 6.10349 | 25380 ft | 428 kts | 131° |
| 2026-05-07 10:09 | 51.81212 | 6.13929 | 25766 ft | 430 kts | 132° |
| 2026-05-07 10:10 | 51.79205 | 6.17604 | 26167 ft | 431 kts | 131° |
| 2026-05-07 10:10 | 51.77238 | 6.21204 | 26546 ft | 433 kts | 131° |
| 2026-05-07 10:10 | 51.75239 | 6.24858 | 26891 ft | 435 kts | 131° |
| 2026-05-07 10:10 | 51.73225 | 6.28530 | 27233 ft | 437 kts | 131° |
| 2026-05-07 10:11 | 51.71202 | 6.32215 | 27553 ft | 439 kts | 131° |
| 2026-05-07 10:11 | 51.69167 | 6.35915 | 27877 ft | 441 kts | 131° |
| 2026-05-07 10:11 | 51.67126 | 6.39627 | 28186 ft | 443 kts | 131° |
| 2026-05-07 10:11 | 51.65075 | 6.43347 | 28487 ft | 445 kts | 131° |
| 2026-05-07 10:12 | 51.63013 | 6.47082 | 28784 ft | 446 kts | 131° |
| 2026-05-07 10:12 | 51.60946 | 6.50819 | 29081 ft | 448 kts | 131° |
| 2026-05-07 10:12 | 51.58870 | 6.54567 | 29363 ft | 449 kts | 131° |
| 2026-05-07 10:12 | 51.56789 | 6.58321 | 29638 ft | 451 kts | 131° |
| 2026-05-07 10:13 | 51.54722 | 6.62045 | 29913 ft | 452 kts | 131° |
| 2026-05-07 10:13 | 51.52622 | 6.65824 | 30206 ft | 453 kts | 131° |
| 2026-05-07 10:13 | 51.50522 | 6.69597 | 30552 ft | 452 kts | 131° |
| 2026-05-07 10:13 | 51.48434 | 6.73346 | 30899 ft | 450 kts | 131° |
| 2026-05-07 10:14 | 51.47053 | 6.75822 | 31103 ft | 450 kts | 132° |
| 2026-05-07 10:14 | 51.44963 | 6.79562 | 31381 ft | 451 kts | 132° |
| 2026-05-07 10:14 | 51.42863 | 6.83315 | 31662 ft | 450 kts | 132° |
| 2026-05-07 10:14 | 51.40767 | 6.87048 | 31964 ft | 450 kts | 132° |
| 2026-05-07 10:15 | 51.38609 | 6.90674 | 32233 ft | 450 kts | 135° |
| 2026-05-07 10:15 | 51.36374 | 6.94195 | 32500 ft | 450 kts | 136° |
| 2026-05-07 10:15 | 51.34140 | 6.97611 | 32780 ft | 449 kts | 136° |
| 2026-05-07 10:15 | 51.31878 | 7.01052 | 33041 ft | 449 kts | 136° |
| 2026-05-07 10:16 | 51.29608 | 7.04510 | 33291 ft | 449 kts | 136° |
| 2026-05-07 10:16 | 51.27348 | 7.07964 | 33561 ft | 449 kts | 136° |
| 2026-05-07 10:16 | 51.25101 | 7.11412 | 33828 ft | 448 kts | 136° |
| 2026-05-07 10:16 | 51.22852 | 7.14873 | 34052 ft | 448 kts | 136° |
| 2026-05-07 10:17 | 51.20602 | 7.18336 | 34270 ft | 449 kts | 136° |
| 2026-05-07 10:17 | 51.18356 | 7.21792 | 34506 ft | 448 kts | 136° |
| 2026-05-07 10:17 | 51.16110 | 7.25244 | 34710 ft | 449 kts | 136° |
| 2026-05-07 10:17 | 51.13859 | 7.28696 | 34887 ft | 450 kts | 136° |
| 2026-05-07 10:18 | 51.11632 | 7.32108 | 35103 ft | 450 kts | 136° |
| 2026-05-07 10:18 | 51.09374 | 7.35563 | 35327 ft | 449 kts | 136° |
| 2026-05-07 10:18 | 51.07117 | 7.39010 | 35517 ft | 449 kts | 136° |
| 2026-05-07 10:18 | 51.04857 | 7.42458 | 35679 ft | 450 kts | 136° |
| 2026-05-07 10:19 | 51.02597 | 7.45899 | 35862 ft | 450 kts | 136° |
| 2026-05-07 10:19 | 51.00339 | 7.49331 | 36081 ft | 449 kts | 137° |
| 2026-05-07 10:19 | 50.98080 | 7.52761 | 36251 ft | 450 kts | 137° |
| 2026-05-07 10:19 | 50.95809 | 7.56204 | 36391 ft | 451 kts | 137° |
| 2026-05-07 10:20 | 50.93568 | 7.59598 | 36534 ft | 451 kts | 137° |
| 2026-05-07 10:20 | 50.91301 | 7.63027 | 36805 ft | 449 kts | 137° |
| 2026-05-07 10:20 | 50.89051 | 7.66425 | 37054 ft | 446 kts | 137° |
| 2026-05-07 10:21 | 50.84541 | 7.73225 | 37020 ft | 448 kts | 137° |
| 2026-05-07 10:21 | 50.80040 | 7.79961 | 37009 ft | 442 kts | 137° |
| 2026-05-07 10:22 | 50.75567 | 7.86612 | 37004 ft | 439 kts | 137° |
| 2026-05-07 10:22 | 50.71124 | 7.93206 | 36997 ft | 437 kts | 137° |
| 2026-05-07 10:23 | 50.66719 | 7.99734 | 37002 ft | 436 kts | 137° |
| 2026-05-07 10:23 | 50.62285 | 8.06290 | 37005 ft | 437 kts | 137° |
| 2026-05-07 10:24 | 50.58067 | 8.13224 | 37008 ft | 439 kts | 129° |
| 2026-05-07 10:24 | 50.54284 | 8.20823 | 37000 ft | 442 kts | 129° |
| 2026-05-07 10:25 | 50.50371 | 8.28283 | 36999 ft | 443 kts | 135° |
| 2026-05-07 10:25 | 50.45987 | 8.35041 | 36996 ft | 445 kts | 137° |
| 2026-05-07 10:26 | 50.41510 | 8.41730 | 37010 ft | 446 kts | 137° |
| 2026-05-07 10:26 | 50.37034 | 8.48503 | 37011 ft | 447 kts | 136° |
| 2026-05-07 10:27 | 50.32574 | 8.55311 | 37017 ft | 447 kts | 136° |
| 2026-05-07 10:27 | 50.28118 | 8.62120 | 37017 ft | 447 kts | 136° |
| 2026-05-07 10:28 | 50.23688 | 8.68873 | 37018 ft | 447 kts | 136° |
| 2026-05-07 10:28 | 50.19234 | 8.75644 | 37015 ft | 446 kts | 136° |
| 2026-05-07 10:29 | 50.14789 | 8.82378 | 37019 ft | 444 kts | 137° |
| 2026-05-07 10:29 | 50.10351 | 8.89085 | 37016 ft | 443 kts | 137° |
| 2026-05-07 10:30 | 50.03742 | 8.99036 | 37019 ft | 442 kts | 137° |
| 2026-05-07 10:30 | 49.99318 | 9.05676 | 37020 ft | 442 kts | 137° |
| 2026-05-07 10:31 | 49.94883 | 9.12314 | 37018 ft | 442 kts | 137° |
| 2026-05-07 10:31 | 49.90446 | 9.18939 | 37019 ft | 442 kts | 137° |
| 2026-05-07 10:32 | 49.86002 | 9.25556 | 37021 ft | 443 kts | 137° |
| 2026-05-07 10:32 | 49.81583 | 9.32119 | 37011 ft | 443 kts | 137° |
| 2026-05-07 10:33 | 49.77100 | 9.38757 | 37008 ft | 443 kts | 137° |
| 2026-05-07 10:33 | 49.72672 | 9.45299 | 37011 ft | 443 kts | 137° |
| 2026-05-07 10:34 | 49.68197 | 9.51888 | 37009 ft | 443 kts | 137° |
| 2026-05-07 10:34 | 49.63731 | 9.58448 | 37008 ft | 443 kts | 137° |
| 2026-05-07 10:35 | 49.59249 | 9.65013 | 36998 ft | 444 kts | 138° |
| 2026-05-07 10:35 | 49.54798 | 9.71515 | 37001 ft | 443 kts | 137° |
| 2026-05-07 10:36 | 49.50321 | 9.78044 | 37001 ft | 443 kts | 138° |
| 2026-05-07 10:36 | 49.45840 | 9.84556 | 36996 ft | 443 kts | 138° |
| 2026-05-07 10:37 | 49.41353 | 9.91060 | 37001 ft | 443 kts | 138° |
| 2026-05-07 10:37 | 49.36859 | 9.97559 | 36997 ft | 443 kts | 138° |
| 2026-05-07 10:38 | 49.32362 | 10.04041 | 36992 ft | 443 kts | 138° |
| 2026-05-07 10:38 | 49.27895 | 10.10466 | 36997 ft | 442 kts | 138° |
| 2026-05-07 10:39 | 49.23405 | 10.16907 | 37003 ft | 442 kts | 138° |
| 2026-05-07 10:39 | 49.18913 | 10.23334 | 37008 ft | 442 kts | 139° |
| 2026-05-07 10:40 | 49.14424 | 10.29743 | 37011 ft | 441 kts | 139° |
| 2026-05-07 10:40 | 49.09937 | 10.36130 | 37007 ft | 441 kts | 139° |
| 2026-05-07 10:41 | 49.05475 | 10.42462 | 37015 ft | 441 kts | 139° |
| 2026-05-07 10:41 | 49.00981 | 10.48825 | 37021 ft | 441 kts | 139° |
| 2026-05-07 10:42 | 48.96484 | 10.55179 | 37023 ft | 441 kts | 139° |
| 2026-05-07 10:42 | 48.91977 | 10.61530 | 37017 ft | 441 kts | 139° |
| 2026-05-07 10:43 | 48.87466 | 10.67870 | 37021 ft | 441 kts | 139° |
| 2026-05-07 10:43 | 48.82974 | 10.74169 | 37019 ft | 442 kts | 139° |
| 2026-05-07 10:44 | 48.78620 | 10.80758 | 37031 ft | 443 kts | 134° |
| 2026-05-07 10:44 | 48.74504 | 10.87732 | 37015 ft | 444 kts | 134° |
| 2026-05-07 10:45 | 48.70399 | 10.94711 | 37017 ft | 444 kts | 134° |
| 2026-05-07 10:45 | 48.66266 | 11.01653 | 37021 ft | 443 kts | 134° |
| 2026-05-07 10:46 | 48.62119 | 11.08568 | 37018 ft | 443 kts | 134° |
| 2026-05-07 10:46 | 48.58001 | 11.15409 | 37015 ft | 443 kts | 134° |
| 2026-05-07 10:47 | 48.53849 | 11.22292 | 37020 ft | 443 kts | 134° |
| 2026-05-07 10:47 | 48.49697 | 11.29157 | 37018 ft | 442 kts | 135° |
| 2026-05-07 10:48 | 48.45543 | 11.36010 | 37019 ft | 442 kts | 135° |
| 2026-05-07 10:48 | 48.41391 | 11.42839 | 37018 ft | 441 kts | 135° |
| 2026-05-07 10:49 | 48.37261 | 11.49614 | 37018 ft | 441 kts | 135° |
| 2026-05-07 10:49 | 48.33107 | 11.56411 | 37017 ft | 440 kts | 135° |
| 2026-05-07 10:50 | 48.28954 | 11.63194 | 37018 ft | 440 kts | 135° |
| 2026-05-07 10:50 | 48.24740 | 11.69824 | 37019 ft | 437 kts | 139° |
| 2026-05-07 10:51 | 48.20269 | 11.75989 | 37016 ft | 436 kts | 141° |
| 2026-05-07 10:51 | 48.15758 | 11.82071 | 37022 ft | 436 kts | 141° |
| 2026-05-07 10:52 | 48.11285 | 11.88149 | 37018 ft | 437 kts | 140° |
| 2026-05-07 10:52 | 48.06795 | 11.94278 | 37018 ft | 437 kts | 140° |
| 2026-05-07 10:53 | 48.02307 | 12.00398 | 37022 ft | 437 kts | 140° |
| 2026-05-07 10:53 | 47.97804 | 12.06524 | 37017 ft | 437 kts | 141° |
| 2026-05-07 10:54 | 47.93328 | 12.12598 | 37019 ft | 437 kts | 141° |
| 2026-05-07 10:54 | 47.88818 | 12.18702 | 37020 ft | 438 kts | 141° |
| 2026-05-07 10:55 | 47.84296 | 12.24811 | 37017 ft | 438 kts | 141° |
| 2026-05-07 10:55 | 47.79766 | 12.30910 | 37021 ft | 438 kts | 141° |
| 2026-05-07 10:56 | 47.75270 | 12.36950 | 37018 ft | 439 kts | 141° |
| 2026-05-07 10:56 | 47.70732 | 12.43033 | 37011 ft | 439 kts | 141° |
| 2026-05-07 10:57 | 47.66188 | 12.49108 | 37022 ft | 439 kts | 141° |
| 2026-05-07 10:57 | 47.61655 | 12.55170 | 37019 ft | 438 kts | 140° |
| 2026-05-07 10:58 | 47.57190 | 12.61347 | 37009 ft | 439 kts | 140° |
| 2026-05-07 10:58 | 47.52760 | 12.67549 | 37014 ft | 438 kts | 140° |
| 2026-05-07 10:59 | 47.48361 | 12.73678 | 37016 ft | 437 kts | 140° |
| 2026-05-07 10:59 | 47.43928 | 12.79818 | 37012 ft | 437 kts | 140° |
| 2026-05-07 11:00 | 47.39491 | 12.85941 | 37026 ft | 436 kts | 140° |
| 2026-05-07 11:00 | 47.35796 | 12.91031 | 37019 ft | 436 kts | 140° |
| 2026-05-07 11:01 | 47.31355 | 12.97133 | 37014 ft | 435 kts | 140° |
| 2026-05-07 11:01 | 47.26920 | 13.03212 | 37012 ft | 435 kts | 140° |
| 2026-05-07 11:02 | 47.22489 | 13.09273 | 37005 ft | 435 kts | 140° |
| 2026-05-07 11:02 | 47.18076 | 13.15294 | 37009 ft | 435 kts | 140° |
| 2026-05-07 11:03 | 47.13627 | 13.21351 | 37001 ft | 435 kts | 140° |
| 2026-05-07 11:03 | 47.09180 | 13.27392 | 37017 ft | 435 kts | 141° |
| 2026-05-07 11:04 | 47.04761 | 13.33378 | 37003 ft | 435 kts | 140° |
| 2026-05-07 11:04 | 47.00314 | 13.39390 | 36983 ft | 435 kts | 141° |
| 2026-05-07 11:05 | 46.95857 | 13.45392 | 36975 ft | 436 kts | 141° |
| 2026-05-07 11:05 | 46.91381 | 13.51410 | 36974 ft | 436 kts | 141° |
| 2026-05-07 11:06 | 46.86918 | 13.57405 | 36976 ft | 436 kts | 141° |
| 2026-05-07 11:06 | 46.82465 | 13.63362 | 36973 ft | 436 kts | 141° |
| 2026-05-07 11:07 | 46.77971 | 13.69357 | 36969 ft | 437 kts | 141° |
| 2026-05-07 11:07 | 46.73483 | 13.75340 | 36975 ft | 436 kts | 141° |
| 2026-05-07 11:08 | 46.69003 | 13.81295 | 36967 ft | 435 kts | 141° |
| 2026-05-07 11:08 | 46.64551 | 13.87200 | 36973 ft | 435 kts | 141° |
| 2026-05-07 11:09 | 46.60068 | 13.93132 | 36973 ft | 435 kts | 141° |
| 2026-05-07 11:09 | 46.55591 | 13.99037 | 36983 ft | 434 kts | 141° |
| 2026-05-07 11:10 | 46.51108 | 14.04936 | 36963 ft | 434 kts | 141° |
| 2026-05-07 11:10 | 46.46637 | 14.10815 | 36984 ft | 434 kts | 141° |
| 2026-05-07 11:11 | 46.42173 | 14.16661 | 36985 ft | 435 kts | 141° |
| 2026-05-07 11:11 | 46.37674 | 14.22546 | 36980 ft | 436 kts | 141° |
| 2026-05-07 11:12 | 46.33175 | 14.28413 | 36971 ft | 436 kts | 141° |
| 2026-05-07 11:12 | 46.28661 | 14.34287 | 36984 ft | 435 kts | 141° |
| 2026-05-07 11:13 | 46.24150 | 14.40141 | 36993 ft | 436 kts | 141° |
| 2026-05-07 11:13 | 46.19633 | 14.45991 | 36987 ft | 436 kts | 141° |
| 2026-05-07 11:14 | 46.15113 | 14.51836 | 36989 ft | 435 kts | 141° |
| 2026-05-07 11:14 | 46.10609 | 14.57646 | 36990 ft | 434 kts | 141° |
| 2026-05-07 11:15 | 46.06128 | 14.63413 | 36998 ft | 433 kts | 141° |
| 2026-05-07 11:15 | 46.01621 | 14.69202 | 36999 ft | 434 kts | 141° |
| 2026-05-07 11:16 | 45.97141 | 14.74938 | 37003 ft | 433 kts | 141° |
| 2026-05-07 11:16 | 45.92621 | 14.80714 | 37000 ft | 434 kts | 141° |
| 2026-05-07 11:17 | 45.88111 | 14.86465 | 37014 ft | 433 kts | 142° |
| 2026-05-07 11:17 | 45.83586 | 14.92215 | 37021 ft | 433 kts | 141° |
| 2026-05-07 11:18 | 45.79095 | 14.97917 | 37016 ft | 434 kts | 142° |
| 2026-05-07 11:18 | 45.74572 | 15.03649 | 37013 ft | 433 kts | 142° |
| 2026-05-07 11:19 | 45.70046 | 15.09368 | 37020 ft | 434 kts | 142° |
| 2026-05-07 11:19 | 45.65515 | 15.15080 | 37023 ft | 434 kts | 142° |
| 2026-05-07 11:20 | 45.60980 | 15.20784 | 37027 ft | 435 kts | 142° |
| 2026-05-07 11:20 | 45.56435 | 15.26488 | 37030 ft | 435 kts | 142° |
| 2026-05-07 11:21 | 45.51907 | 15.32157 | 37028 ft | 435 kts | 142° |
| 2026-05-07 11:21 | 45.47338 | 15.37867 | 37031 ft | 436 kts | 142° |
| 2026-05-07 11:22 | 45.42774 | 15.43559 | 37027 ft | 436 kts | 142° |
| 2026-05-07 11:22 | 45.38205 | 15.49242 | 37030 ft | 436 kts | 142° |
| 2026-05-07 11:23 | 45.33631 | 15.54927 | 37023 ft | 436 kts | 142° |
| 2026-05-07 11:23 | 45.29090 | 15.60547 | 37024 ft | 435 kts | 142° |
| 2026-05-07 11:24 | 45.24511 | 15.66202 | 37021 ft | 435 kts | 142° |
| 2026-05-07 11:24 | 45.19939 | 15.71839 | 37018 ft | 435 kts | 142° |
| 2026-05-07 11:25 | 45.15387 | 15.77438 | 37017 ft | 435 kts | 142° |
| 2026-05-07 11:25 | 45.10811 | 15.83056 | 37020 ft | 435 kts | 142° |
| 2026-05-07 11:26 | 45.06237 | 15.88657 | 37020 ft | 435 kts | 142° |
| 2026-05-07 11:26 | 45.01659 | 15.94251 | 37024 ft | 434 kts | 142° |
| 2026-05-07 11:27 | 44.97087 | 15.99828 | 37030 ft | 434 kts | 142° |
| 2026-05-07 11:27 | 44.92513 | 16.05393 | 37023 ft | 434 kts | 142° |
| 2026-05-07 11:28 | 44.87961 | 16.10917 | 37031 ft | 434 kts | 142° |
| 2026-05-07 11:28 | 44.83378 | 16.16470 | 37040 ft | 434 kts | 142° |
| 2026-05-07 11:29 | 44.78794 | 16.22013 | 37044 ft | 434 kts | 142° |
| 2026-05-07 11:29 | 44.74205 | 16.27548 | 37045 ft | 434 kts | 142° |
| 2026-05-07 11:30 | 44.69606 | 16.33082 | 37048 ft | 435 kts | 142° |
| 2026-05-07 11:30 | 44.65031 | 16.38576 | 37047 ft | 435 kts | 142° |
| 2026-05-07 11:31 | 44.60419 | 16.44103 | 37051 ft | 436 kts | 142° |
| 2026-05-07 11:31 | 44.55794 | 16.49634 | 37046 ft | 437 kts | 142° |
| 2026-05-07 11:32 | 44.48851 | 16.57914 | 37047 ft | 437 kts | 142° |
| 2026-05-07 11:33 | 44.44223 | 16.63419 | 37054 ft | 437 kts | 142° |
| 2026-05-07 11:33 | 44.39588 | 16.68920 | 37052 ft | 437 kts | 142° |
| 2026-05-07 11:34 | 44.34946 | 16.74418 | 37057 ft | 437 kts | 142° |
| 2026-05-07 11:34 | 44.30339 | 16.79861 | 37054 ft | 436 kts | 142° |
| 2026-05-07 11:35 | 44.25709 | 16.85319 | 37055 ft | 435 kts | 142° |
| 2026-05-07 11:35 | 44.21086 | 16.90762 | 37062 ft | 434 kts | 142° |
| 2026-05-07 11:36 | 44.16461 | 16.96195 | 37058 ft | 434 kts | 142° |
| 2026-05-07 11:36 | 44.11831 | 17.01619 | 37060 ft | 435 kts | 142° |
| 2026-05-07 11:37 | 44.07191 | 17.07042 | 37058 ft | 435 kts | 142° |
| 2026-05-07 11:37 | 44.02580 | 17.12422 | 37056 ft | 435 kts | 142° |
| 2026-05-07 11:38 | 43.97951 | 17.17811 | 37062 ft | 434 kts | 142° |
| 2026-05-07 11:38 | 43.93317 | 17.23195 | 37067 ft | 434 kts | 142° |
| 2026-05-07 11:39 | 43.88679 | 17.28572 | 37068 ft | 434 kts | 142° |
| 2026-05-07 11:39 | 43.84034 | 17.33944 | 37074 ft | 434 kts | 142° |
| 2026-05-07 11:40 | 43.79413 | 17.39281 | 37080 ft | 435 kts | 143° |
| 2026-05-07 11:40 | 43.74761 | 17.44641 | 37066 ft | 435 kts | 143° |
| 2026-05-07 11:41 | 43.70108 | 17.49992 | 37074 ft | 435 kts | 143° |
| 2026-05-07 11:41 | 43.65452 | 17.55335 | 37077 ft | 435 kts | 143° |
| 2026-05-07 11:42 | 43.60783 | 17.60679 | 37080 ft | 436 kts | 143° |
| 2026-05-07 11:42 | 43.56112 | 17.66015 | 37085 ft | 435 kts | 143° |
| 2026-05-07 11:43 | 43.51444 | 17.71337 | 37080 ft | 436 kts | 143° |
| 2026-05-07 11:43 | 43.46800 | 17.76621 | 37080 ft | 435 kts | 143° |
| 2026-05-07 11:44 | 43.42133 | 17.81919 | 37085 ft | 435 kts | 143° |
| 2026-05-07 11:44 | 43.37468 | 17.87206 | 37106 ft | 434 kts | 143° |
| 2026-05-07 11:45 | 43.32803 | 17.92481 | 37109 ft | 434 kts | 143° |
| 2026-05-07 11:45 | 43.28121 | 17.97764 | 37100 ft | 435 kts | 143° |
| 2026-05-07 11:46 | 43.23475 | 18.02997 | 37106 ft | 435 kts | 143° |
| 2026-05-07 11:46 | 43.18794 | 18.08259 | 37090 ft | 435 kts | 143° |
| 2026-05-07 11:47 | 43.14114 | 18.13504 | 37106 ft | 434 kts | 143° |
| 2026-05-07 11:47 | 43.09422 | 18.18757 | 37100 ft | 434 kts | 143° |
| 2026-05-07 11:48 | 43.04774 | 18.23950 | 37085 ft | 434 kts | 143° |
| 2026-05-07 11:48 | 43.00089 | 18.29173 | 37083 ft | 433 kts | 143° |
| 2026-05-07 11:49 | 42.95421 | 18.34366 | 37083 ft | 433 kts | 143° |
| 2026-05-07 11:49 | 42.90748 | 18.39553 | 37094 ft | 433 kts | 143° |
| 2026-05-07 11:50 | 42.86070 | 18.44737 | 37093 ft | 434 kts | 143° |
| 2026-05-07 11:50 | 42.82172 | 18.49047 | 37085 ft | 434 kts | 143° |
| 2026-05-07 11:51 | 42.77475 | 18.54232 | 37099 ft | 435 kts | 143° |
| 2026-05-07 11:51 | 42.72783 | 18.59401 | 37097 ft | 435 kts | 143° |
| 2026-05-07 11:52 | 42.68064 | 18.64590 | 37084 ft | 436 kts | 143° |
| 2026-05-07 11:52 | 42.63340 | 18.69776 | 37091 ft | 436 kts | 143° |
| 2026-05-07 11:53 | 42.58610 | 18.74953 | 37097 ft | 436 kts | 143° |
| 2026-05-07 11:53 | 42.53918 | 18.80081 | 37094 ft | 435 kts | 143° |
| 2026-05-07 11:54 | 42.49199 | 18.85229 | 37079 ft | 434 kts | 143° |
| 2026-05-07 11:54 | 42.44490 | 18.90356 | 37077 ft | 434 kts | 143° |
| 2026-05-07 11:55 | 42.39771 | 18.95478 | 37092 ft | 434 kts | 143° |
| 2026-05-07 11:55 | 42.35085 | 19.00559 | 37084 ft | 434 kts | 143° |
| 2026-05-07 11:56 | 42.30373 | 19.05662 | 37102 ft | 434 kts | 144° |
| 2026-05-07 11:56 | 42.25658 | 19.10749 | 37093 ft | 433 kts | 143° |
| 2026-05-07 11:57 | 42.20942 | 19.15833 | 37099 ft | 433 kts | 144° |
| 2026-05-07 11:57 | 42.16226 | 19.20908 | 37096 ft | 433 kts | 144° |
| 2026-05-07 11:58 | 42.11532 | 19.25948 | 37105 ft | 433 kts | 144° |
| 2026-05-07 11:58 | 42.06800 | 19.31017 | 37103 ft | 433 kts | 144° |
| 2026-05-07 11:59 | 42.02076 | 19.36070 | 37105 ft | 434 kts | 144° |
| 2026-05-07 11:59 | 41.97340 | 19.41120 | 37094 ft | 435 kts | 144° |
| 2026-05-07 12:00 | 41.92626 | 19.46146 | 37091 ft | 435 kts | 144° |
| 2026-05-07 12:00 | 41.87875 | 19.51197 | 37095 ft | 436 kts | 144° |
| 2026-05-07 12:01 | 41.83112 | 19.56250 | 37096 ft | 436 kts | 144° |
| 2026-05-07 12:01 | 41.78337 | 19.61307 | 37093 ft | 437 kts | 144° |
| 2026-05-07 12:02 | 41.73557 | 19.66358 | 37085 ft | 438 kts | 144° |
| 2026-05-07 12:02 | 41.68774 | 19.71405 | 37083 ft | 438 kts | 144° |
| 2026-05-07 12:03 | 41.64020 | 19.76410 | 37084 ft | 437 kts | 144° |
| 2026-05-07 12:03 | 41.59248 | 19.81425 | 37083 ft | 434 kts | 144° |
| 2026-05-07 12:04 | 41.54495 | 19.86409 | 37082 ft | 432 kts | 144° |
| 2026-05-07 12:04 | 41.49791 | 19.91335 | 37081 ft | 432 kts | 144° |
| 2026-05-07 12:05 | 41.45036 | 19.96299 | 37090 ft | 437 kts | 144° |
| 2026-05-07 12:05 | 41.40197 | 20.01344 | 37094 ft | 445 kts | 144° |
| 2026-05-07 12:06 | 41.35293 | 20.06450 | 37080 ft | 448 kts | 144° |
| 2026-05-07 12:06 | 41.30398 | 20.11536 | 37099 ft | 449 kts | 144° |
| 2026-05-07 12:07 | 41.25520 | 20.16594 | 37072 ft | 440 kts | 144° |
| 2026-05-07 12:07 | 41.20697 | 20.21583 | 37096 ft | 440 kts | 144° |
| 2026-05-07 12:08 | 41.15845 | 20.26592 | 37104 ft | 442 kts | 144° |
| 2026-05-07 12:08 | 41.10982 | 20.31602 | 37118 ft | 443 kts | 144° |
| 2026-05-07 12:09 | 41.06103 | 20.36622 | 37124 ft | 445 kts | 144° |
| 2026-05-07 12:09 | 41.01234 | 20.41621 | 37127 ft | 446 kts | 144° |
| 2026-05-07 12:10 | 40.96319 | 20.46656 | 37126 ft | 447 kts | 144° |
| 2026-05-07 12:10 | 40.91396 | 20.51692 | 37141 ft | 447 kts | 144° |
| 2026-05-07 12:11 | 40.86464 | 20.56726 | 37136 ft | 448 kts | 144° |
| 2026-05-07 12:11 | 40.81536 | 20.61746 | 37143 ft | 448 kts | 144° |
| 2026-05-07 12:12 | 40.76593 | 20.66773 | 37139 ft | 449 kts | 144° |
| 2026-05-07 12:12 | 40.71668 | 20.71773 | 37133 ft | 449 kts | 144° |
| 2026-05-07 12:13 | 40.66718 | 20.76787 | 37140 ft | 449 kts | 144° |
| 2026-05-07 12:13 | 40.61766 | 20.81794 | 37147 ft | 449 kts | 144° |
| 2026-05-07 12:14 | 40.56800 | 20.86807 | 37141 ft | 449 kts | 145° |
| 2026-05-07 12:14 | 40.51867 | 20.91776 | 37151 ft | 448 kts | 144° |
| 2026-05-07 12:15 | 40.46934 | 20.96808 | 37156 ft | 448 kts | 142° |
| 2026-05-07 12:15 | 40.42236 | 21.02206 | 37156 ft | 449 kts | 140° |
| 2026-05-07 12:16 | 40.37665 | 21.07723 | 37159 ft | 448 kts | 139° |
| 2026-05-07 12:16 | 40.33061 | 21.13266 | 37160 ft | 448 kts | 140° |
| 2026-05-07 12:17 | 40.28445 | 21.18778 | 37158 ft | 448 kts | 140° |
| 2026-05-07 12:17 | 40.23859 | 21.24224 | 37167 ft | 447 kts | 140° |
| 2026-05-07 12:18 | 40.19236 | 21.29699 | 37166 ft | 448 kts | 140° |
| 2026-05-07 12:18 | 40.14610 | 21.35166 | 37173 ft | 447 kts | 140° |
| 2026-05-07 12:19 | 40.09991 | 21.40616 | 37163 ft | 447 kts | 140° |
| 2026-05-07 12:19 | 40.05369 | 21.46058 | 37166 ft | 447 kts | 140° |
| 2026-05-07 12:20 | 40.00776 | 21.51457 | 37166 ft | 447 kts | 140° |
| 2026-05-07 12:20 | 39.96162 | 21.56875 | 37159 ft | 447 kts | 140° |
| 2026-05-07 12:21 | 39.91535 | 21.62291 | 37165 ft | 447 kts | 140° |
| 2026-05-07 12:21 | 39.86911 | 21.67695 | 37165 ft | 446 kts | 140° |
| 2026-05-07 12:22 | 39.82283 | 21.73093 | 37171 ft | 447 kts | 140° |
| 2026-05-07 12:22 | 39.77671 | 21.78472 | 37163 ft | 448 kts | 140° |
| 2026-05-07 12:23 | 39.73018 | 21.83883 | 37165 ft | 449 kts | 140° |
| 2026-05-07 12:23 | 39.68341 | 21.89302 | 37162 ft | 450 kts | 140° |
| 2026-05-07 12:24 | 39.63697 | 21.94679 | 37155 ft | 450 kts | 140° |
| 2026-05-07 12:24 | 39.59018 | 22.00096 | 37151 ft | 450 kts | 140° |
| 2026-05-07 12:25 | 39.54335 | 22.05489 | 37159 ft | 449 kts | 140° |
| 2026-05-07 12:25 | 39.49672 | 22.10858 | 37145 ft | 449 kts | 140° |
| 2026-05-07 12:26 | 39.44988 | 22.16238 | 37146 ft | 449 kts | 140° |
| 2026-05-07 12:26 | 39.40347 | 22.21558 | 37150 ft | 448 kts | 140° |
| 2026-05-07 12:27 | 39.35675 | 22.26913 | 37144 ft | 449 kts | 140° |
| 2026-05-07 12:27 | 39.30979 | 22.32281 | 37142 ft | 450 kts | 140° |
| 2026-05-07 12:28 | 39.26276 | 22.37649 | 37137 ft | 451 kts | 140° |
| 2026-05-07 12:28 | 39.21557 | 22.43018 | 37137 ft | 453 kts | 140° |
| 2026-05-07 12:29 | 39.16854 | 22.48363 | 37128 ft | 453 kts | 140° |
| 2026-05-07 12:29 | 39.12099 | 22.53756 | 37134 ft | 455 kts | 141° |
| 2026-05-07 12:30 | 39.07333 | 22.59151 | 37129 ft | 456 kts | 141° |
| 2026-05-07 12:30 | 39.02589 | 22.64512 | 37120 ft | 457 kts | 141° |
| 2026-05-07 12:31 | 38.97800 | 22.69913 | 37123 ft | 458 kts | 141° |
| 2026-05-07 12:31 | 38.93005 | 22.75312 | 37137 ft | 459 kts | 141° |
| 2026-05-07 12:32 | 38.88195 | 22.80724 | 37124 ft | 460 kts | 141° |
| 2026-05-07 12:32 | 38.83370 | 22.86133 | 37135 ft | 460 kts | 141° |
| 2026-05-07 12:33 | 38.76153 | 22.94201 | 37128 ft | 461 kts | 141° |
| 2026-05-07 12:33 | 38.71319 | 22.99599 | 37131 ft | 461 kts | 141° |
| 2026-05-07 12:34 | 38.66479 | 23.04994 | 37126 ft | 461 kts | 141° |
| 2026-05-07 12:34 | 38.61634 | 23.10383 | 37130 ft | 461 kts | 141° |
| 2026-05-07 12:35 | 38.56815 | 23.15735 | 37126 ft | 461 kts | 141° |
| 2026-05-07 12:35 | 38.51966 | 23.21110 | 37134 ft | 461 kts | 141° |
| 2026-05-07 12:36 | 38.47124 | 23.26465 | 37129 ft | 460 kts | 141° |
| 2026-05-07 12:36 | 38.42280 | 23.31817 | 37128 ft | 460 kts | 141° |
| 2026-05-07 12:37 | 38.37469 | 23.37117 | 37129 ft | 460 kts | 141° |
| 2026-05-07 12:37 | 38.32625 | 23.42445 | 37132 ft | 459 kts | 141° |
| 2026-05-07 12:38 | 38.27785 | 23.47759 | 37124 ft | 459 kts | 141° |
| 2026-05-07 12:38 | 38.25352 | 23.50426 | 36850 ft | 464 kts | 141° |
| 2026-05-07 12:38 | 38.22899 | 23.53112 | 36396 ft | 463 kts | 141° |
| 2026-05-07 12:39 | 38.20463 | 23.55780 | 35846 ft | 463 kts | 141° |
| 2026-05-07 12:39 | 38.18019 | 23.58453 | 35272 ft | 464 kts | 141° |
| 2026-05-07 12:39 | 38.15572 | 23.61126 | 34689 ft | 464 kts | 141° |
| 2026-05-07 12:39 | 38.13153 | 23.63767 | 34089 ft | 465 kts | 141° |
| 2026-05-07 12:40 | 38.10696 | 23.66446 | 33499 ft | 465 kts | 141° |
| 2026-05-07 12:40 | 38.08251 | 23.69109 | 33084 ft | 460 kts | 141° |
| 2026-05-07 12:40 | 38.05828 | 23.71748 | 32645 ft | 456 kts | 141° |
| 2026-05-07 12:40 | 38.04239 | 23.73477 | 32365 ft | 454 kts | 141° |
| 2026-05-07 12:41 | 38.01851 | 23.76073 | 31939 ft | 450 kts | 141° |
| 2026-05-07 12:41 | 37.99480 | 23.78647 | 31518 ft | 447 kts | 141° |
| 2026-05-07 12:41 | 37.97128 | 23.81199 | 31107 ft | 443 kts | 141° |
| 2026-05-07 12:41 | 37.94792 | 23.83732 | 30679 ft | 440 kts | 141° |
| 2026-05-07 12:42 | 37.92471 | 23.86247 | 30279 ft | 436 kts | 141° |
| 2026-05-07 12:42 | 37.90173 | 23.88735 | 29867 ft | 433 kts | 141° |
| 2026-05-07 12:42 | 37.87890 | 23.91203 | 29454 ft | 430 kts | 141° |
| 2026-05-07 12:42 | 37.85623 | 23.93651 | 29030 ft | 427 kts | 141° |
| 2026-05-07 12:43 | 37.83370 | 23.96083 | 28614 ft | 425 kts | 141° |
| 2026-05-07 12:43 | 37.81155 | 23.98471 | 28198 ft | 422 kts | 141° |
| 2026-05-07 12:43 | 37.78925 | 24.00874 | 27780 ft | 420 kts | 141° |
| 2026-05-07 12:43 | 37.76715 | 24.03253 | 27368 ft | 417 kts | 141° |
| 2026-05-07 12:44 | 37.74496 | 24.05613 | 26959 ft | 415 kts | 141° |
| 2026-05-07 12:44 | 37.72300 | 24.07957 | 26537 ft | 413 kts | 141° |
| 2026-05-07 12:44 | 37.70115 | 24.10310 | 26117 ft | 411 kts | 141° |
| 2026-05-07 12:44 | 37.67948 | 24.12648 | 25711 ft | 409 kts | 141° |
| 2026-05-07 12:45 | 37.65794 | 24.14970 | 25309 ft | 406 kts | 141° |
| 2026-05-07 12:45 | 37.63650 | 24.17270 | 25034 ft | 400 kts | 141° |
| 2026-05-07 12:45 | 37.61533 | 24.19534 | 24563 ft | 400 kts | 141° |
| 2026-05-07 12:45 | 37.59413 | 24.21799 | 24152 ft | 397 kts | 141° |
| 2026-05-07 12:46 | 37.57307 | 24.24049 | 23734 ft | 395 kts | 141° |
| 2026-05-07 12:46 | 37.55212 | 24.26286 | 23335 ft | 392 kts | 141° |
| 2026-05-07 12:46 | 37.53135 | 24.28502 | 22938 ft | 390 kts | 141° |
| 2026-05-07 12:46 | 37.51072 | 24.30703 | 22538 ft | 387 kts | 141° |
| 2026-05-07 12:47 | 37.49023 | 24.32888 | 22151 ft | 385 kts | 141° |
| 2026-05-07 12:47 | 37.47015 | 24.35028 | 21769 ft | 382 kts | 141° |
| 2026-05-07 12:47 | 37.44990 | 24.37182 | 21382 ft | 379 kts | 141° |
| 2026-05-07 12:47 | 37.42980 | 24.39320 | 21006 ft | 377 kts | 141° |
| 2026-05-07 12:48 | 37.40980 | 24.41447 | 20615 ft | 375 kts | 141° |
| 2026-05-07 12:48 | 37.38993 | 24.43557 | 20234 ft | 373 kts | 141° |
| 2026-05-07 12:48 | 37.37012 | 24.45660 | 19858 ft | 371 kts | 141° |
| 2026-05-07 12:48 | 37.35043 | 24.47745 | 19453 ft | 369 kts | 141° |
| 2026-05-07 12:49 | 37.33091 | 24.49813 | 19114 ft | 366 kts | 141° |
| 2026-05-07 12:49 | 37.31144 | 24.51876 | 18727 ft | 364 kts | 141° |
| 2026-05-07 12:49 | 37.29215 | 24.53920 | 18356 ft | 362 kts | 141° |
| 2026-05-07 12:49 | 37.27318 | 24.55926 | 17985 ft | 360 kts | 141° |
| 2026-05-07 12:50 | 37.25412 | 24.57942 | 17616 ft | 357 kts | 141° |
| 2026-05-07 12:50 | 37.23512 | 24.59951 | 17245 ft | 355 kts | 141° |
| 2026-05-07 12:50 | 37.21629 | 24.61939 | 16875 ft | 353 kts | 141° |
| 2026-05-07 12:50 | 37.19757 | 24.63911 | 16507 ft | 351 kts | 140° |
| 2026-05-07 12:51 | 37.17893 | 24.65876 | 16119 ft | 349 kts | 140° |
| 2026-05-07 12:51 | 37.16031 | 24.67840 | 15713 ft | 348 kts | 140° |
| 2026-05-07 12:51 | 37.14189 | 24.69780 | 15394 ft | 345 kts | 140° |
| 2026-05-07 12:51 | 37.12355 | 24.71708 | 15035 ft | 343 kts | 140° |
| 2026-05-07 12:52 | 37.10529 | 24.73628 | 14682 ft | 341 kts | 140° |
| 2026-05-07 12:52 | 37.08716 | 24.75533 | 14323 ft | 339 kts | 140° |
| 2026-05-07 12:52 | 37.06938 | 24.77400 | 13968 ft | 338 kts | 140° |
| 2026-05-07 12:52 | 37.05142 | 24.79284 | 13609 ft | 336 kts | 140° |
| 2026-05-07 12:53 | 37.03356 | 24.81157 | 13248 ft | 334 kts | 140° |
| 2026-05-07 12:53 | 37.01573 | 24.83026 | 12890 ft | 333 kts | 140° |
| 2026-05-07 12:53 | 36.99793 | 24.84890 | 12525 ft | 332 kts | 140° |
| 2026-05-07 12:53 | 36.98024 | 24.86741 | 12151 ft | 330 kts | 140° |
| 2026-05-07 12:54 | 36.96260 | 24.88587 | 11738 ft | 329 kts | 140° |
| 2026-05-07 12:54 | 36.94536 | 24.90390 | 11272 ft | 323 kts | 140° |
| 2026-05-07 12:54 | 36.92817 | 24.92187 | 10662 ft | 322 kts | 140° |
| 2026-05-07 12:54 | 36.91116 | 24.93963 | 10370 ft | 312 kts | 140° |
| 2026-05-07 12:55 | 36.89467 | 24.95683 | 10198 ft | 305 kts | 140° |
| 2026-05-07 12:55 | 36.87859 | 24.97360 | 10065 ft | 297 kts | 140° |
| 2026-05-07 12:55 | 36.86287 | 24.99000 | 9819 ft | 293 kts | 140° |
| 2026-05-07 12:55 | 36.84721 | 25.00631 | 9539 ft | 292 kts | 140° |
| 2026-05-07 12:56 | 36.83168 | 25.02248 | 9254 ft | 290 kts | 140° |
| 2026-05-07 12:56 | 36.81627 | 25.03852 | 8975 ft | 288 kts | 140° |
| 2026-05-07 12:56 | 36.80092 | 25.05449 | 8678 ft | 287 kts | 140° |
| 2026-05-07 12:56 | 36.78559 | 25.07044 | 8394 ft | 286 kts | 140° |
| 2026-05-07 12:57 | 36.77049 | 25.08612 | 8112 ft | 284 kts | 140° |
| 2026-05-07 12:57 | 36.75537 | 25.10183 | 7821 ft | 282 kts | 140° |
| 2026-05-07 12:57 | 36.74027 | 25.11751 | 7516 ft | 281 kts | 140° |
| 2026-05-07 12:57 | 36.72528 | 25.13307 | 7250 ft | 279 kts | 140° |
| 2026-05-07 12:58 | 36.71037 | 25.14852 | 6974 ft | 278 kts | 140° |
| 2026-05-07 12:58 | 36.69557 | 25.16386 | 6693 ft | 276 kts | 140° |
| 2026-05-07 12:58 | 36.68148 | 25.17999 | 6341 ft | 277 kts | 126° |
| 2026-05-07 12:58 | 36.67430 | 25.20191 | 6056 ft | 274 kts | 103° |
| 2026-05-07 12:59 | 36.67017 | 25.22471 | 5833 ft | 271 kts | 103° |
| 2026-05-07 12:59 | 36.66576 | 25.24739 | 5551 ft | 269 kts | 104° |
| 2026-05-07 12:59 | 36.66100 | 25.27010 | 5229 ft | 270 kts | 105° |
| 2026-05-07 12:59 | 36.65595 | 25.29241 | 5028 ft | 265 kts | 106° |
| 2026-05-07 13:00 | 36.65085 | 25.31438 | 4803 ft | 262 kts | 106° |
| 2026-05-07 13:00 | 36.64591 | 25.33576 | 4601 ft | 252 kts | 106° |
| 2026-05-07 13:00 | 36.64021 | 25.35626 | 4235 ft | 248 kts | 120° |
| 2026-05-07 13:00 | 36.62855 | 25.37157 | 3832 ft | 246 kts | 153° |
| 2026-05-07 13:01 | 36.61298 | 25.37911 | 3651 ft | 235 kts | 161° |
| 2026-05-07 13:01 | 36.59806 | 25.38564 | 3498 ft | 223 kts | 160° |
| 2026-05-07 13:01 | 36.58393 | 25.39207 | 3298 ft | 213 kts | 160° |
| 2026-05-07 13:01 | 36.57020 | 25.39826 | 3031 ft | 207 kts | 160° |
| 2026-05-07 13:02 | 36.55699 | 25.40433 | 2889 ft | 197 kts | 160° |
| 2026-05-07 13:02 | 36.54427 | 25.41040 | 2700 ft | 196 kts | 159° |
| 2026-05-07 13:02 | 36.53155 | 25.41665 | 2546 ft | 196 kts | 159° |
| 2026-05-07 13:02 | 36.51877 | 25.42276 | 2341 ft | 194 kts | 159° |
| 2026-05-07 13:03 | 36.50626 | 25.42878 | 2062 ft | 192 kts | 159° |
| 2026-05-07 13:03 | 36.49408 | 25.43451 | 1793 ft | 182 kts | 159° |
| 2026-05-07 13:03 | 36.48269 | 25.43990 | 1612 ft | 165 kts | 159° |
| 2026-05-07 13:03 | 36.47253 | 25.44472 | 1385 ft | 151 kts | 158° |
| 2026-05-07 13:04 | 36.46269 | 25.44938 | 1215 ft | 152 kts | 158° |
| 2026-05-07 13:04 | 36.45286 | 25.45414 | 1057 ft | 155 kts | 158° |
| 2026-05-07 13:04 | 36.44279 | 25.45878 | 839 ft | 154 kts | 159° |
| 2026-05-07 13:04 | 36.43280 | 25.46341 | 632 ft | 153 kts | 158° |
| 2026-05-07 13:05 | 36.42283 | 25.46805 | 405 ft | 153 kts | 159° |
| 2026-05-07 13:05 | 36.41281 | 25.47275 | 183 ft | 154 kts | 158° |
| 2026-05-07 13:05 | 36.40303 | 25.47737 | 90 ft | 140 kts | 160° |
| 2026-05-07 13:05 | 36.39587 | 25.48072 | 66 ft | 79 kts | 159° |
| 2026-05-07 13:06 | 36.39266 | 25.48225 | 60 ft | 27 kts | 159° |
| 2026-05-07 13:06 | 36.39097 | 25.48306 | 53 ft | 19 kts | 160° |
| 2026-05-07 13:06 | 36.39008 | 25.48239 | 51 ft | 18 kts | 252° |
| 2026-05-07 13:06 | 36.39077 | 25.48143 | 52 ft | 17 kts | 339° |
| 2026-05-07 13:07 | 36.39185 | 25.48093 | 60 ft | 16 kts | 339° |
| 2026-05-07 13:07 | 36.39301 | 25.48038 | 60 ft | 20 kts | 339° |
| 2026-05-07 13:07 | 36.39444 | 25.47972 | 66 ft | 24 kts | 339° |
| 2026-05-07 13:07 | 36.39611 | 25.47892 | 72 ft | 27 kts | 338° |
| 2026-05-07 13:08 | 36.39800 | 25.47803 | 88 ft | 30 kts | 339° |
| 2026-05-07 13:08 | 36.39993 | 25.47711 | 88 ft | 29 kts | 339° |
| 2026-05-07 13:08 | 36.40177 | 25.47626 | 90 ft | 27 kts | 339° |
| 2026-05-07 13:08 | 36.40271 | 25.47573 | 88 ft | 5 kts | 309° |
| 2026-05-07 13:09 | 36.40271 | 25.47535 | 88 ft | 6 kts | 249° |
| 2026-05-07 13:09 | 36.40277 | 25.47472 | 90 ft | 9 kts | 286° |
| 2026-05-07 13:09 | 36.40269 | 25.47426 | 91 ft | 3 kts | 249° |